Terminal Aerodrome Forecast
Issued by NWS Mt. Holly, NJ

Current Version | Previous Version | Text Only | Print | Product List | Glossary On
Versions: 1 2 3 4 5 6 7 8 9 10 11 12 13 14 15 16 17 18 19 20 21 22 23 24
165
FTUS41 KPHI 281120
TAFRDG
TAF
KRDG 281120Z 2812/2912 36003KT 3SM BR OVC005
      TEMPO 2812/2815 1SM -SHRA BR OVC003
     FM281500 01003KT 4SM BR VCSH OVC006
     FM281900 02003KT 2SM RA BR OVC009
     FM290000 36003KT 3SM BR VCSH OVC015
     FM290300 36008KT P6SM BKN025
     FM291000 34011KT P6SM SKC=

USA.gov is the U.S. government's official web portal to all federal, state and local government web resources and services.